createdAt,value
2017-09-27T00:00:56.507Z,0
2017-09-27T00:01:50.603Z,0
2017-09-27T00:02:38.578Z,0
2017-09-27T00:03:28.124Z,0
2017-09-27T00:04:15.691Z,0
2017-09-27T00:05:03.747Z,0
2017-09-27T00:05:53.381Z,0
2017-09-27T00:06:47.772Z,0
2017-09-27T00:07:36.857Z,0
2017-09-27T00:08:32.141Z,0
2017-09-27T00:09:32.071Z,0
2017-09-27T00:10:26.246Z,0
2017-09-27T00:11:32.195Z,0
2017-09-27T00:12:31.982Z,0
2017-09-27T00:13:27.029Z,0
2017-09-27T00:14:27.028Z,0
2017-09-27T00:15:27.525Z,0
2017-09-27T00:16:27.097Z,0
2017-09-27T00:17:33.139Z,0
2017-09-27T00:18:33.182Z,0
2017-09-27T00:19:27.194Z,0
2017-09-27T00:20:27.660Z,0
2017-09-27T00:21:22.745Z,0
2017-09-27T00:22:10.294Z,0
2017-09-27T00:22:58.353Z,0
2017-09-27T00:23:46.389Z,0
2017-09-27T00:24:35.444Z,0
2017-09-27T00:25:23.813Z,0
2017-09-27T00:26:11.497Z,0
2017-09-27T00:27:05.511Z,0
2017-09-27T00:27:53.577Z,0
2017-09-27T00:28:42.759Z,0
2017-09-27T00:29:37.691Z,0
2017-09-27T00:30:38.260Z,0
2017-09-27T00:31:37.723Z,0
2017-09-27T00:32:26.783Z,0
2017-09-27T00:33:14.778Z,0
2017-09-27T00:34:03.860Z,0
2017-09-27T00:34:58.921Z,0
2017-09-27T00:35:48.451Z,0
2017-09-27T00:36:36.087Z,0
2017-09-27T00:37:29.996Z,0
2017-09-27T00:38:25.018Z,0
2017-09-27T00:39:25.082Z,0
2017-09-27T00:40:19.109Z,0
2017-09-27T00:41:19.611Z,0
2017-09-27T00:42:14.311Z,0
2017-09-27T00:43:09.211Z,0
2017-09-27T00:44:09.268Z,0
2017-09-27T00:45:04.854Z,0
2017-09-27T00:45:59.734Z,0
2017-09-27T00:46:59.731Z,0
2017-09-27T00:47:54.374Z,0
2017-09-27T00:48:48.407Z,0
2017-09-27T00:49:43.443Z,0
2017-09-27T00:50:37.958Z,0
2017-09-27T00:51:32.546Z,0
2017-09-27T00:52:21.864Z,0
2017-09-27T00:53:16.667Z,0
2017-09-27T00:54:11.618Z,0
2017-09-27T00:55:06.994Z,0
2017-09-27T00:56:01.752Z,0
2017-09-27T00:56:56.758Z,0
2017-09-27T00:57:50.770Z,0
2017-09-27T00:58:45.774Z,0
2017-09-27T00:59:45.797Z,0
2017-09-27T01:00:41.225Z,0
2017-09-27T01:01:35.878Z,0
2017-09-27T01:02:29.959Z,0
2017-09-27T01:03:24.066Z,0
2017-09-27T01:04:12.215Z,0
2017-09-27T01:05:01.146Z,0
2017-09-27T01:05:49.598Z,0
2017-09-27T01:06:37.109Z,0
2017-09-27T01:07:26.185Z,0
2017-09-27T01:08:14.246Z,0
2017-09-27T01:09:02.255Z,0
2017-09-27T01:09:51.654Z,0
2017-09-27T01:10:39.352Z,0
2017-09-27T01:11:28.381Z,0
2017-09-27T01:12:16.403Z,0
2017-09-27T01:13:04.685Z,0
2017-09-27T01:13:53.650Z,0
2017-09-27T01:14:41.515Z,0
2017-09-27T01:15:31.065Z,0
2017-09-27T01:16:18.597Z,0
2017-09-27T01:17:13.040Z,0
2017-09-27T01:18:00.700Z,0
2017-09-27T01:18:54.892Z,0
2017-09-27T01:19:42.790Z,0
2017-09-27T01:20:30.772Z,0
2017-09-27T01:21:18.880Z,0
2017-09-27T01:22:06.921Z,0
2017-09-27T01:22:56.225Z,0
2017-09-27T01:23:43.995Z,0
2017-09-27T01:24:33.558Z,0
2017-09-27T01:25:21.144Z,0
2017-09-27T01:26:09.104Z,0
2017-09-27T01:26:57.168Z,0
2017-09-27T01:27:46.189Z,0
2017-09-27T01:28:34.276Z,0
2017-09-27T01:29:23.330Z,0
2017-09-27T01:30:11.721Z,0
2017-09-27T01:30:59.398Z,0
2017-09-27T01:31:53.391Z,0
2017-09-27T01:32:41.454Z,0
2017-09-27T01:33:30.482Z,0
2017-09-27T01:34:18.513Z,0
2017-09-27T01:35:06.681Z,0
2017-09-27T01:35:56.016Z,0
2017-09-27T01:36:43.676Z,0
2017-09-27T01:37:31.746Z,0
2017-09-27T01:38:20.891Z,0
2017-09-27T01:39:08.796Z,0
2017-09-27T01:39:57.082Z,0
2017-09-27T01:40:45.865Z,0
2017-09-27T01:41:33.910Z,0
2017-09-27T01:42:22.394Z,0
2017-09-27T01:43:10.993Z,0
2017-09-27T01:43:59.043Z,0
2017-09-27T01:44:47.037Z,0
2017-09-27T01:45:36.166Z,0
2017-09-27T01:46:24.168Z,0
2017-09-27T01:47:12.557Z,0
2017-09-27T01:48:00.208Z,0
2017-09-27T01:48:49.273Z,0
2017-09-27T01:49:37.306Z,0
2017-09-27T01:50:32.594Z,0
2017-09-27T01:51:21.386Z,0
2017-09-27T01:52:09.417Z,0
2017-09-27T01:53:03.482Z,0
2017-09-27T01:53:57.491Z,0
2017-09-27T01:54:45.557Z,0
2017-09-27T01:55:34.593Z,0
2017-09-27T01:56:23.602Z,0
2017-09-27T01:57:24.654Z,0
2017-09-27T01:58:25.702Z,0
2017-09-27T01:59:25.696Z,0
2017-09-27T02:00:25.783Z,0
2017-09-27T02:01:25.786Z,0
2017-09-27T02:02:31.803Z,0
2017-09-27T02:03:25.856Z,0
2017-09-27T02:04:20.873Z,0
2017-09-27T02:05:15.929Z,0
2017-09-27T02:06:09.937Z,0
2017-09-27T02:06:58.984Z,0
2017-09-27T02:07:48.033Z,0
2017-09-27T02:08:36.109Z,0
2017-09-27T02:09:30.088Z,0
2017-09-27T02:10:19.172Z,0
2017-09-27T02:11:14.177Z,0
2017-09-27T02:12:14.196Z,0
2017-09-27T02:13:09.202Z,0
2017-09-27T02:14:09.266Z,0
2017-09-27T02:15:03.287Z,0
2017-09-27T02:15:52.905Z,0
2017-09-27T02:16:40.373Z,0
2017-09-27T02:17:28.388Z,0
2017-09-27T02:18:16.435Z,0
2017-09-27T02:19:04.502Z,0
2017-09-27T02:20:06.046Z,0
2017-09-27T02:21:05.572Z,0
2017-09-27T02:21:54.594Z,0
2017-09-27T02:22:43.658Z,0
2017-09-27T02:23:32.035Z,0
2017-09-27T02:24:19.741Z,0
2017-09-27T02:25:08.795Z,0
2017-09-27T02:25:57.032Z,0
2017-09-27T02:26:50.880Z,0
2017-09-27T02:27:50.884Z,0
2017-09-27T02:28:45.923Z,0
2017-09-27T02:29:45.959Z,0
2017-09-27T02:30:40.159Z,0
2017-09-27T02:31:40.012Z,0
2017-09-27T02:32:35.185Z,0
2017-09-27T02:33:29.092Z,0
2017-09-27T02:34:23.103Z,0
2017-09-27T02:35:23.347Z,0
2017-09-27T02:36:18.181Z,0
2017-09-27T02:37:12.209Z,0
2017-09-27T02:38:12.710Z,0
2017-09-27T02:39:12.679Z,0
2017-09-27T02:40:07.466Z,0
2017-09-27T02:40:56.996Z,0
2017-09-27T02:41:44.417Z,0
2017-09-27T02:42:44.425Z,0
2017-09-27T02:43:39.467Z,0
2017-09-27T02:44:39.531Z,0
2017-09-27T02:45:34.044Z,0
2017-09-27T02:46:34.574Z,0
2017-09-27T02:47:35.588Z,0
2017-09-27T02:48:29.707Z,0
2017-09-27T02:49:29.693Z,0
2017-09-27T02:50:23.710Z,0
2017-09-27T02:51:23.711Z,0
2017-09-27T02:52:18.833Z,0
2017-09-27T02:53:13.809Z,0
2017-09-27T02:54:14.814Z,0
2017-09-27T02:55:15.004Z,0
2017-09-27T02:56:14.926Z,0
2017-09-27T02:57:09.905Z,0
2017-09-27T02:58:03.988Z,0
2017-09-27T02:59:05.007Z,0
2017-09-27T03:00:05.216Z,0
2017-09-27T03:01:00.116Z,0
2017-09-27T03:01:48.101Z,0
2017-09-27T03:02:36.459Z,0
2017-09-27T03:03:24.176Z,0
2017-09-27T03:04:12.191Z,0
2017-09-27T03:05:01.521Z,0
2017-09-27T03:05:49.776Z,0
2017-09-27T03:06:37.369Z,0
2017-09-27T03:07:26.366Z,0
2017-09-27T03:08:14.421Z,0
2017-09-27T03:09:02.450Z,0
2017-09-27T03:09:50.533Z,0
2017-09-27T03:10:39.956Z,0
2017-09-27T03:11:27.571Z,0
2017-09-27T03:12:17.002Z,0
2017-09-27T03:13:05.067Z,0
2017-09-27T03:13:52.703Z,0
2017-09-27T03:14:42.102Z,0
2017-09-27T03:15:30.117Z,0
2017-09-27T03:16:18.877Z,0
2017-09-27T03:17:06.958Z,0
2017-09-27T03:17:56.051Z,0
2017-09-27T03:18:45.540Z,0
2017-09-27T03:19:34.573Z,0
2017-09-27T03:20:23.973Z,0
2017-09-27T03:21:24.346Z,0
2017-09-27T03:22:19.374Z,0
2017-09-27T03:23:08.447Z,0
2017-09-27T03:23:57.466Z,0
2017-09-27T03:24:45.480Z,0
2017-09-27T03:25:34.030Z,0
2017-09-27T03:26:23.353Z,0
2017-09-27T03:27:12.885Z,0
2017-09-27T03:28:01.583Z,0
2017-09-27T03:28:50.938Z,0
2017-09-27T03:29:38.688Z,0
2017-09-27T03:30:27.159Z,0
2017-09-27T03:31:26.782Z,0
2017-09-27T03:32:20.839Z,0
2017-09-27T03:33:15.651Z,0
2017-09-27T03:34:18.152Z,0
2017-09-27T03:35:19.788Z,0
2017-09-27T03:36:19.856Z,0
2017-09-27T03:37:19.897Z,0
2017-09-27T03:38:13.954Z,0
2017-09-27T03:39:02.085Z,0
2017-09-27T03:39:51.198Z,0
2017-09-27T03:40:45.518Z,0
2017-09-27T03:41:39.197Z,0
2017-09-27T03:42:34.886Z,0
2017-09-27T03:43:30.611Z,0
2017-09-27T03:44:21.102Z,0
2017-09-27T03:45:15.563Z,0
2017-09-27T03:46:03.595Z,0
2017-09-27T03:46:58.796Z,0
2017-09-27T03:47:47.896Z,0
2017-09-27T03:48:36.006Z,0
2017-09-27T03:49:25.268Z,0
2017-09-27T03:50:14.284Z,0
2017-09-27T03:51:03.173Z,0
2017-09-27T03:51:58.199Z,0
2017-09-27T03:52:52.273Z,0
2017-09-27T03:53:47.286Z,0
2017-09-27T03:54:41.307Z,0
2017-09-27T03:55:41.309Z,0
2017-09-27T03:56:35.703Z,0
2017-09-27T03:57:29.455Z,0
2017-09-27T03:58:24.436Z,0
2017-09-27T03:59:18.548Z,0
2017-09-27T04:00:18.504Z,0
2017-09-27T04:01:13.513Z,0
2017-09-27T04:02:13.578Z,0
2017-09-27T04:03:07.612Z,0
2017-09-27T04:04:08.629Z,0
2017-09-27T04:05:08.909Z,0
2017-09-27T04:06:03.766Z,0
2017-09-27T04:06:52.187Z,0
2017-09-27T04:07:39.867Z,0
2017-09-27T04:08:27.989Z,0
2017-09-27T04:09:15.956Z,0
2017-09-27T04:10:04.050Z,0
2017-09-27T04:10:52.423Z,0
2017-09-27T04:11:41.312Z,0
2017-09-27T04:12:29.240Z,0
2017-09-27T04:13:17.217Z,0
2017-09-27T04:14:06.524Z,0
2017-09-27T04:14:55.285Z,0
2017-09-27T04:15:44.791Z,0
2017-09-27T04:16:33.550Z,0
2017-09-27T04:17:22.021Z,0
2017-09-27T04:18:16.003Z,0
2017-09-27T04:19:10.091Z,0
2017-09-27T04:20:03.876Z,0
2017-09-27T04:20:59.222Z,0
2017-09-27T04:21:53.739Z,0
2017-09-27T04:22:41.777Z,0
2017-09-27T04:23:30.843Z,0
2017-09-27T04:24:18.888Z,0
2017-09-27T04:25:06.976Z,0
2017-09-27T04:26:07.934Z,0
2017-09-27T04:27:01.975Z,0
2017-09-27T04:28:02.204Z,0
2017-09-27T04:28:57.232Z,0
2017-09-27T04:29:52.195Z,0
2017-09-27T04:30:52.485Z,0
2017-09-27T04:31:47.179Z,0
2017-09-27T04:32:42.529Z,0
2017-09-27T04:33:42.215Z,0
2017-09-27T04:34:37.423Z,0
2017-09-27T04:35:32.732Z,0
2017-09-27T04:36:33.306Z,0
2017-09-27T04:37:33.369Z,0
2017-09-27T04:38:33.405Z,0
2017-09-27T04:39:28.412Z,0
2017-09-27T04:40:22.757Z,0
2017-09-27T04:41:22.519Z,0
2017-09-27T04:42:17.505Z,0
2017-09-27T04:43:17.569Z,0
2017-09-27T04:44:17.594Z,0
2017-09-27T04:45:17.598Z,0
2017-09-27T04:46:11.701Z,0
2017-09-27T04:46:59.708Z,0
2017-09-27T04:47:47.872Z,0
2017-09-27T04:48:36.801Z,0
2017-09-27T04:49:25.813Z,0
2017-09-27T04:50:19.876Z,0
2017-09-27T04:51:14.462Z,0
2017-09-27T04:52:01.975Z,0
2017-09-27T04:52:50.966Z,0
2017-09-27T04:53:39.007Z,4
2017-09-27T04:54:34.076Z,4
2017-09-27T04:55:29.497Z,4
2017-09-27T04:56:18.096Z,0
2017-09-27T04:57:13.203Z,4
2017-09-27T04:58:08.591Z,4
2017-09-27T04:59:08.245Z,4
2017-09-27T04:59:57.279Z,4
2017-09-27T05:00:57.294Z,4
2017-09-27T05:01:46.510Z,4
2017-09-27T05:02:41.404Z,8
2017-09-27T05:03:29.406Z,8
2017-09-27T05:04:18.456Z,12
2017-09-27T05:05:12.991Z,16
2017-09-27T05:06:07.553Z,20
2017-09-27T05:07:01.629Z,20
2017-09-27T05:07:56.620Z,24
2017-09-27T05:08:56.641Z,28
2017-09-27T05:09:44.691Z,32
2017-09-27T05:10:39.706Z,32
2017-09-27T05:11:39.760Z,40
2017-09-27T05:12:45.783Z,48
2017-09-27T05:13:40.807Z,56
2017-09-27T05:14:34.859Z,64
2017-09-27T05:15:34.887Z,72
2017-09-27T05:16:29.896Z,80
2017-09-27T05:17:23.979Z,92
2017-09-27T05:18:19.214Z,104
2017-09-27T05:19:19.064Z,116
2017-09-27T05:20:20.061Z,136
2017-09-27T05:21:20.082Z,152
2017-09-27T05:22:20.094Z,172
2017-09-27T05:23:20.151Z,188
2017-09-27T05:24:20.242Z,208
2017-09-27T05:25:14.819Z,232
2017-09-27T05:26:02.626Z,248
2017-09-27T05:26:51.288Z,272
2017-09-27T05:27:51.343Z,296
2017-09-27T05:28:45.392Z,320
2017-09-27T05:29:46.417Z,348
2017-09-27T05:30:40.415Z,372
2017-09-27T05:31:40.491Z,400
2017-09-27T05:32:35.512Z,424
2017-09-27T05:33:30.514Z,456
2017-09-27T05:34:24.571Z,488
2017-09-27T05:35:20.251Z,516
2017-09-27T05:36:20.633Z,556
2017-09-27T05:37:23.157Z,596
2017-09-27T05:38:25.608Z,636
2017-09-27T05:39:17.088Z,676
2017-09-27T05:40:08.791Z,712
2017-09-27T05:41:05.080Z,748
2017-09-27T05:42:02.566Z,772
2017-09-27T05:43:00.218Z,788
2017-09-27T05:44:03.565Z,788
2017-09-27T05:45:01.076Z,784
2017-09-27T05:45:57.498Z,788
2017-09-27T05:46:48.126Z,808
2017-09-27T05:47:39.496Z,836
2017-09-27T05:48:35.984Z,892
2017-09-27T05:49:26.460Z,964
2017-09-27T05:50:23.086Z,1048
2017-09-27T05:51:20.441Z,1116
2017-09-27T05:52:22.929Z,1168
2017-09-27T05:53:20.398Z,1196
2017-09-27T05:54:17.929Z,1224
2017-09-27T05:55:20.664Z,1256
2017-09-27T05:56:22.879Z,1292
2017-09-27T05:57:26.555Z,1324
2017-09-27T05:58:23.873Z,1352
2017-09-27T05:59:20.302Z,1372
2017-09-27T06:00:18.303Z,1388
2017-09-27T06:01:14.296Z,1392
2017-09-27T06:02:11.796Z,1400
2017-09-27T06:03:14.307Z,1420
2017-09-27T06:04:16.395Z,1436
2017-09-27T06:05:14.093Z,1468
2017-09-27T06:06:16.238Z,1496
2017-09-27T06:07:13.117Z,1528
2017-09-27T06:08:09.187Z,1556
2017-09-27T06:09:07.070Z,1584
2017-09-27T06:10:09.270Z,1620
2017-09-27T06:11:12.032Z,1660
2017-09-27T06:12:09.013Z,1712
2017-09-27T06:13:05.500Z,1760
2017-09-27T06:14:02.981Z,1816
2017-09-27T06:14:59.469Z,1876
2017-09-27T06:15:55.939Z,1952
2017-09-27T06:16:59.401Z,2040
2017-09-27T06:18:01.909Z,2120
2017-09-27T06:18:58.452Z,2192
2017-09-27T06:20:00.909Z,2276
2017-09-27T06:21:03.401Z,2372
2017-09-27T06:22:05.862Z,2464
2017-09-27T06:23:02.350Z,2552
2017-09-27T06:24:04.802Z,2652
2017-09-27T06:25:07.388Z,2744
2017-09-27T06:26:03.819Z,2828
2017-09-27T06:27:01.287Z,2876
2017-09-27T06:27:58.780Z,2904
2017-09-27T06:29:07.269Z,2948
2017-09-27T06:30:04.716Z,2976
2017-09-27T06:31:02.202Z,3012
2017-09-27T06:32:00.202Z,3056
2017-09-27T06:32:57.197Z,3112
2017-09-27T06:33:54.691Z,3188
2017-09-27T06:34:52.178Z,3268
2017-09-27T06:35:49.688Z,3352
2017-09-27T06:36:46.811Z,3432
2017-09-27T06:37:49.155Z,3524
2017-09-27T06:38:51.855Z,3636
2017-09-27T06:39:49.092Z,3748
2017-09-27T06:40:39.618Z,3860
2017-09-27T06:41:31.091Z,3976
2017-09-27T06:42:21.856Z,4096
2017-09-27T06:43:13.322Z,4220
2017-09-27T06:44:03.600Z,4356
2017-09-27T06:45:00.115Z,4492
2017-09-27T06:45:58.056Z,4604
2017-09-27T06:47:01.030Z,4732
2017-09-27T06:47:57.528Z,4868
2017-09-27T06:48:54.080Z,4968
2017-09-27T06:49:56.508Z,5076
2017-09-27T06:50:53.006Z,5152
2017-09-27T06:51:44.482Z,5180
2017-09-27T06:52:42.008Z,5212
2017-09-27T06:53:44.486Z,5260
2017-09-27T06:54:41.976Z,5220
2017-09-27T06:55:39.462Z,5260
2017-09-27T06:56:43.146Z,5316
2017-09-27T06:57:51.419Z,5356
2017-09-27T06:58:54.906Z,5372
2017-09-27T06:59:57.393Z,5388
2017-09-27T07:00:54.879Z,5424
2017-09-27T07:01:51.821Z,5532
2017-09-27T07:02:48.854Z,5612
2017-09-27T07:03:51.305Z,5816
2017-09-27T07:04:53.881Z,5944
2017-09-27T07:06:03.292Z,6108
2017-09-27T07:06:54.163Z,6192
2017-09-27T07:07:56.560Z,6328
2017-09-27T07:08:52.842Z,6428
2017-09-27T07:09:43.236Z,6500
2017-09-27T07:10:35.212Z,6544
2017-09-27T07:11:31.221Z,6576
2017-09-27T07:12:21.938Z,6572
2017-09-27T07:13:13.195Z,6564
2017-09-27T07:14:10.693Z,6540
2017-09-27T07:15:08.308Z,6560
2017-09-27T07:16:11.682Z,6552
2017-09-27T07:17:08.451Z,6552
2017-09-27T07:17:59.665Z,6600
2017-09-27T07:18:56.169Z,6652
2017-09-27T07:20:04.701Z,6640
2017-09-27T07:21:02.134Z,6652
2017-09-27T07:21:52.620Z,6652
2017-09-27T07:22:49.092Z,6604
2017-09-27T07:23:45.590Z,6488
2017-09-27T07:24:43.353Z,6372
2017-09-27T07:25:45.582Z,6272
2017-09-27T07:26:49.063Z,6220
2017-09-27T07:27:57.582Z,6240
2017-09-27T07:29:00.305Z,6320
2017-09-27T07:30:03.499Z,6396
2017-09-27T07:31:00.112Z,6424
2017-09-27T07:31:56.495Z,6404
2017-09-27T07:32:54.001Z,6436
2017-09-27T07:33:51.995Z,6448
2017-09-27T07:34:47.946Z,6488
2017-09-27T07:35:50.472Z,6508
2017-09-27T07:36:41.906Z,6564
2017-09-27T07:37:38.402Z,6776
2017-09-27T07:38:35.906Z,6936
2017-09-27T07:39:38.395Z,7116
2017-09-27T07:40:34.892Z,7284
2017-09-27T07:41:37.494Z,7472
2017-09-27T07:42:39.884Z,7676
2017-09-27T07:43:36.734Z,7752
2017-09-27T07:44:33.315Z,7964
2017-09-27T07:45:29.991Z,8080
2017-09-27T07:46:26.197Z,8188
2017-09-27T07:47:22.687Z,8312
2017-09-27T07:48:20.135Z,8392
2017-09-27T07:49:11.609Z,8540
2017-09-27T07:50:08.106Z,8652
2017-09-27T07:51:05.412Z,8748
2017-09-27T07:52:02.161Z,8900
2017-09-27T07:52:59.390Z,8976
2017-09-27T07:54:00.368Z,9140
2017-09-27T07:54:52.093Z,9248
2017-09-27T07:55:49.328Z,9376
2017-09-27T07:56:52.849Z,9524
2017-09-27T07:57:43.786Z,9692
2017-09-27T07:58:46.206Z,9864
2017-09-27T07:59:42.705Z,10020
2017-09-27T08:00:39.223Z,10132
2017-09-27T08:01:35.707Z,10208
2017-09-27T08:02:33.218Z,10312
2017-09-27T08:03:29.703Z,10428
2017-09-27T08:04:32.195Z,10580
2017-09-27T08:05:34.654Z,10816
2017-09-27T08:06:26.174Z,10980
2017-09-27T08:07:16.660Z,11188
2017-09-27T08:08:14.313Z,11492
2017-09-27T08:09:11.609Z,11860
2017-09-27T08:10:14.668Z,12304
2017-09-27T08:11:16.602Z,12764
2017-09-27T08:12:19.094Z,13332
2017-09-27T08:13:15.602Z,13864
2017-09-27T08:14:17.801Z,14484
2017-09-27T08:15:20.757Z,15044
2017-09-27T08:16:22.726Z,15636
2017-09-27T08:17:20.272Z,16384
2017-09-27T08:18:23.890Z,16896
2017-09-27T08:19:21.199Z,17376
2017-09-27T08:20:19.253Z,17568
2017-09-27T08:21:21.247Z,17920
2017-09-27T08:22:25.004Z,18144
2017-09-27T08:23:22.485Z,18208
2017-09-27T08:24:20.155Z,18336
2017-09-27T08:25:22.989Z,18432
2017-09-27T08:26:24.680Z,18496
2017-09-27T08:27:28.113Z,18656
2017-09-27T08:28:26.012Z,18720
2017-09-27T08:29:23.144Z,18752
2017-09-27T08:30:25.598Z,18816
2017-09-27T08:31:29.093Z,18752
2017-09-27T08:32:27.085Z,18688
2017-09-27T08:33:29.020Z,18656
2017-09-27T08:34:31.534Z,18624
2017-09-27T08:35:34.079Z,18816
2017-09-27T08:36:30.525Z,18944
2017-09-27T08:37:27.043Z,19200
2017-09-27T08:38:18.711Z,19488
2017-09-27T08:39:10.788Z,19680
2017-09-27T08:40:00.511Z,19968
2017-09-27T08:40:52.286Z,20192
2017-09-27T08:41:48.562Z,20448
2017-09-27T08:42:46.086Z,20544
2017-09-27T08:43:43.507Z,20768
2017-09-27T08:44:45.983Z,21184
2017-09-27T08:45:42.468Z,21472
2017-09-27T08:46:44.987Z,21888
2017-09-27T08:47:47.473Z,22400
2017-09-27T08:48:39.201Z,23008
2017-09-27T08:49:35.791Z,23712
2017-09-27T08:50:31.936Z,24512
2017-09-27T08:51:28.474Z,25536
2017-09-27T08:52:26.110Z,26528
2017-09-27T08:53:22.421Z,27104
2017-09-27T08:54:24.932Z,27776
2017-09-27T08:55:28.394Z,28544
2017-09-27T08:56:30.906Z,29472
2017-09-27T08:57:27.407Z,30528
2017-09-27T08:58:23.902Z,32480
2017-09-27T08:59:20.404Z,34080
2017-09-27T09:00:17.426Z,34752
2017-09-27T09:01:14.742Z,36960
2017-09-27T09:02:12.049Z,51264
2017-09-27T09:03:14.388Z,54816
2017-09-27T09:04:10.868Z,47840
2017-09-27T09:05:07.366Z,53824
2017-09-27T09:06:03.194Z,47360
2017-09-27T09:07:05.864Z,43424
2017-09-27T09:08:08.427Z,38784
2017-09-27T09:08:59.713Z,38432
2017-09-27T09:09:56.480Z,36512
2017-09-27T09:10:47.677Z,33344
2017-09-27T09:11:50.178Z,31840
2017-09-27T09:12:53.667Z,30400
2017-09-27T09:13:51.342Z,29056
2017-09-27T09:14:47.690Z,28096
2017-09-27T09:15:45.382Z,28256
2017-09-27T09:16:48.050Z,29120
2017-09-27T09:17:50.606Z,33792
2017-09-27T09:18:53.171Z,34816
2017-09-27T09:19:50.441Z,29216
2017-09-27T09:20:42.031Z,29056
2017-09-27T09:21:38.418Z,31424
2017-09-27T09:22:29.048Z,35264
2017-09-27T09:23:20.572Z,41472
2017-09-27T09:24:11.082Z,36064
2017-09-27T09:25:07.628Z,35232
2017-09-27T09:25:59.088Z,36416
2017-09-27T09:26:56.635Z,35616
2017-09-27T09:27:54.130Z,34912
2017-09-27T09:28:56.658Z,38784
2017-09-27T09:29:53.130Z,42400
2017-09-27T09:30:43.578Z,39872
2017-09-27T09:31:35.147Z,38048
2017-09-27T09:32:26.619Z,41952
2017-09-27T09:33:18.104Z,43776
2017-09-27T09:34:08.594Z,44512
2017-09-27T09:34:58.905Z,44608
2017-09-27T09:35:53.932Z,45088
2017-09-27T09:36:49.778Z,44384
2017-09-27T09:37:44.083Z,43264
2017-09-27T09:38:45.022Z,44768
2017-09-27T09:39:36.655Z,46688
2017-09-27T09:40:32.002Z,49984
2017-09-27T09:41:22.557Z,51264
2017-09-27T09:42:17.399Z,50112
2017-09-27T09:43:14.165Z,47712
2017-09-27T09:44:05.560Z,46304
2017-09-27T09:45:02.180Z,46528
2017-09-27T09:45:58.676Z,48192
2017-09-27T09:46:49.166Z,49792
2017-09-27T09:47:45.652Z,49792
2017-09-27T09:48:42.100Z,44096
2017-09-27T09:49:39.619Z,46368
2017-09-27T09:50:42.150Z,38880
2017-09-27T09:51:33.553Z,41760
2017-09-27T09:52:24.162Z,45760
2017-09-27T09:53:14.667Z,26944
2017-09-27T09:54:05.174Z,32992
2017-09-27T09:55:01.721Z,40032
2017-09-27T09:56:04.121Z,39872
2017-09-27T09:57:01.702Z,45824
2017-09-27T09:57:52.220Z,42016
2017-09-27T09:58:49.687Z,35424
2017-09-27T09:59:47.223Z,37216
2017-09-27T10:00:38.714Z,51712
2017-09-27T10:01:41.258Z,31968
2017-09-27T10:02:32.696Z,41472
2017-09-27T10:03:27.910Z,44928
2017-09-27T10:04:16.627Z,44832
2017-09-27T10:05:11.681Z,46880
2017-09-27T10:06:00.970Z,48384
2017-09-27T10:06:55.026Z,48384
2017-09-27T10:07:50.864Z,46944
2017-09-27T10:08:53.297Z,45568
2017-09-27T10:09:55.945Z,45280
2017-09-27T10:10:50.873Z,45824
2017-09-27T10:11:45.990Z,44672
2017-09-27T10:12:40.999Z,36480
2017-09-27T10:13:35.279Z,35104
2017-09-27T10:14:29.384Z,24896
2017-09-27T10:15:23.463Z,26688
2017-09-27T10:16:18.568Z,23808
2017-09-27T10:17:07.633Z,23296
2017-09-27T10:18:01.688Z,22848
2017-09-27T10:18:56.782Z,23936
2017-09-27T10:19:46.023Z,26496
2017-09-27T10:20:40.289Z,26912
2017-09-27T10:21:30.110Z,32064
2017-09-27T10:22:19.145Z,47552
2017-09-27T10:23:19.655Z,32480
2017-09-27T10:24:09.073Z,27776
2017-09-27T10:25:03.648Z,27168
2017-09-27T10:25:57.654Z,27648
2017-09-27T10:26:58.735Z,27904
2017-09-27T10:27:54.049Z,41696
2017-09-27T10:28:49.186Z,25472
2017-09-27T10:29:38.201Z,34848
2017-09-27T10:30:27.465Z,35968
2017-09-27T10:31:16.007Z,46624
2017-09-27T10:32:11.623Z,39072
2017-09-27T10:33:09.058Z,27712
2017-09-27T10:34:10.820Z,27936
2017-09-27T10:35:07.237Z,26240
2017-09-27T10:36:03.851Z,29472
2017-09-27T10:37:01.326Z,33600
2017-09-27T10:37:57.859Z,40000
2017-09-27T10:38:59.754Z,50976
2017-09-27T10:39:50.197Z,27200
2017-09-27T10:40:47.213Z,27648
2017-09-27T10:41:43.701Z,25568
2017-09-27T10:42:45.864Z,29536
2017-09-27T10:43:42.434Z,25312
2017-09-27T10:44:44.942Z,24288
2017-09-27T10:45:36.349Z,43424
2017-09-27T10:46:27.929Z,35968
2017-09-27T10:47:19.466Z,23872
2017-09-27T10:48:15.945Z,26592
2017-09-27T10:49:07.411Z,26560
2017-09-27T10:50:04.963Z,24672
2017-09-27T10:51:02.367Z,27488
2017-09-27T10:51:58.926Z,36768
2017-09-27T10:52:55.391Z,27616
2017-09-27T10:53:45.949Z,46720
2017-09-27T10:54:36.436Z,28704
2017-09-27T10:55:33.940Z,48416
2017-09-27T10:56:24.484Z,37504
2017-09-27T10:57:21.959Z,44544
2017-09-27T10:58:19.501Z,35776
2017-09-27T10:59:17.166Z,32832
2017-09-27T11:00:20.600Z,47296
2017-09-27T11:01:16.784Z,36096
2017-09-27T11:02:13.449Z,45792
2017-09-27T11:03:05.070Z,47328
2017-09-27T11:04:07.265Z,45920
2017-09-27T11:05:03.510Z,44960
2017-09-27T11:06:01.207Z,43584
2017-09-27T11:06:57.927Z,42464
2017-09-27T11:07:49.455Z,42432
2017-09-27T11:08:57.574Z,42048
2017-09-27T11:10:00.113Z,40992
2017-09-27T11:10:57.081Z,41536
2017-09-27T11:12:00.591Z,42592
2017-09-27T11:13:02.639Z,44416
2017-09-27T11:14:05.533Z,45152
2017-09-27T11:14:56.783Z,44384
2017-09-27T11:15:48.203Z,44864
2017-09-27T11:16:45.762Z,45664
2017-09-27T11:17:42.169Z,47008
2017-09-27T11:18:39.747Z,48000
2017-09-27T11:19:36.246Z,46976
2017-09-27T11:20:32.787Z,44896
2017-09-27T11:21:30.535Z,43008
2017-09-27T11:22:21.901Z,44544
2017-09-27T11:23:18.543Z,44160
2017-09-27T11:24:21.103Z,44448
2017-09-27T11:25:23.650Z,46592
2017-09-27T11:26:15.056Z,45472
2017-09-27T11:27:11.653Z,45248
2017-09-27T11:28:07.612Z,46912
2017-09-27T11:28:57.642Z,48992
2017-09-27T11:30:00.168Z,47200
2017-09-27T11:30:57.595Z,47168
2017-09-27T11:31:48.132Z,44512
2017-09-27T11:32:50.623Z,42016
2017-09-27T11:33:47.450Z,42784
2017-09-27T11:34:44.229Z,43584
2017-09-27T11:35:40.745Z,45152
2017-09-27T11:36:32.252Z,42016
2017-09-27T11:37:34.779Z,25632
2017-09-27T11:38:25.292Z,23456
2017-09-27T11:39:21.785Z,42496
2017-09-27T11:40:18.321Z,44384
2017-09-27T11:41:15.759Z,44416
2017-09-27T11:42:18.281Z,62240
2017-09-27T11:43:20.884Z,46080
2017-09-27T11:44:17.285Z,46176
2017-09-27T11:45:14.743Z,44736
2017-09-27T11:46:12.277Z,44608
2017-09-27T11:47:03.959Z,45024
2017-09-27T11:48:06.326Z,44832
2017-09-27T11:49:03.987Z,45280
2017-09-27T11:50:00.293Z,44064
2017-09-27T11:50:56.790Z,43776
2017-09-27T11:51:53.313Z,44032
2017-09-27T11:52:43.827Z,42944
2017-09-27T11:53:40.344Z,42208
2017-09-27T11:54:36.791Z,42432
2017-09-27T11:55:33.399Z,43296
2017-09-27T11:56:29.862Z,43552
2017-09-27T11:57:26.347Z,43616
2017-09-27T11:58:17.831Z,42976
2017-09-27T11:59:08.341Z,42976
2017-09-27T11:59:58.866Z,42592
2017-09-27T12:00:50.387Z,40736
2017-09-27T12:01:42.010Z,41152
2017-09-27T12:02:44.382Z,40288
2017-09-27T12:03:40.134Z,40448
2017-09-27T12:04:35.530Z,21216
2017-09-27T12:05:30.744Z,39456
2017-09-27T12:06:32.379Z,39648
2017-09-27T12:07:28.220Z,20032
2017-09-27T12:08:24.469Z,40800
2017-09-27T12:09:21.691Z,40576
2017-09-27T12:10:18.503Z,39424
2017-09-27T12:11:08.918Z,40320
2017-09-27T12:12:05.462Z,40448
2017-09-27T12:13:01.942Z,39968
2017-09-27T12:13:58.402Z,38912
2017-09-27T12:14:55.965Z,36640
2017-09-27T12:15:47.463Z,37248
2017-09-27T12:16:37.955Z,45248
2017-09-27T12:17:34.501Z,22368
2017-09-27T12:18:30.964Z,40192
2017-09-27T12:19:27.459Z,41472
2017-09-27T12:20:24.068Z,42048
2017-09-27T12:21:26.530Z,41792
2017-09-27T12:22:21.577Z,20640
2017-09-27T12:23:10.918Z,20320
2017-09-27T12:23:59.996Z,31264
2017-09-27T12:25:00.108Z,20448
2017-09-27T12:25:54.485Z,38656
2017-09-27T12:26:54.695Z,38016
2017-09-27T12:27:48.843Z,38592
2017-09-27T12:28:48.888Z,38144
2017-09-27T12:29:54.901Z,32800
2017-09-27T12:30:50.014Z,21696
2017-09-27T12:31:44.659Z,21792
2017-09-27T12:32:50.779Z,21888
2017-09-27T12:33:40.095Z,21152
2017-09-27T12:34:35.013Z,20768
2017-09-27T12:35:32.482Z,18636
2017-09-27T12:36:34.357Z,19744
2017-09-27T12:37:24.241Z,20064
2017-09-27T12:38:18.306Z,19072
2017-09-27T12:39:07.477Z,18264
2017-09-27T12:39:57.432Z,19232